createdAt,value
2018-12-04T00:01:35.248Z,8.00
2018-12-04T00:04:03.116Z,7.90
2018-12-04T00:06:30.992Z,7.90
2018-12-04T00:08:58.795Z,7.90
2018-12-04T00:11:26.675Z,7.90
2018-12-04T00:13:54.534Z,7.90
2018-12-04T00:16:22.355Z,7.90
2018-12-04T00:18:50.253Z,7.80
2018-12-04T00:21:18.116Z,7.80
2018-12-04T00:23:46.274Z,7.80
2018-12-04T00:26:14.114Z,7.80
2018-12-04T00:28:41.995Z,7.80
2018-12-04T00:31:09.882Z,7.70
2018-12-04T00:33:37.731Z,7.70
2018-12-04T00:36:05.605Z,7.70
2018-12-04T00:38:33.465Z,7.70
2018-12-04T00:41:01.438Z,7.70
2018-12-04T00:43:29.303Z,7.60
2018-12-04T00:45:57.152Z,7.60
2018-12-04T00:48:24.984Z,7.50
2018-12-04T00:50:52.771Z,7.50
2018-12-04T00:53:20.602Z,7.50
2018-12-04T00:55:48.651Z,7.40
2018-12-04T00:58:16.468Z,7.40
2018-12-04T01:00:44.274Z,7.40
2018-12-04T01:03:12.277Z,7.40
2018-12-04T01:05:40.099Z,7.40
2018-12-04T01:08:07.922Z,7.40
2018-12-04T01:10:35.928Z,7.40
2018-12-04T01:13:03.802Z,7.40
2018-12-04T01:15:31.789Z,7.40
2018-12-04T01:17:59.666Z,7.40
2018-12-04T01:20:27.622Z,7.40
2018-12-04T01:22:55.446Z,7.40
2018-12-04T01:25:23.296Z,7.40
2018-12-04T01:27:51.139Z,7.40
2018-12-04T01:30:18.967Z,7.40
2018-12-04T01:32:46.807Z,7.30
2018-12-04T01:35:14.666Z,7.30
2018-12-04T01:37:42.513Z,7.30
2018-12-04T01:40:10.462Z,7.30
2018-12-04T01:42:38.338Z,7.30
2018-12-04T01:45:06.799Z,7.30
2018-12-04T01:47:34.619Z,7.30
2018-12-04T01:50:02.873Z,7.30
2018-12-04T01:52:30.744Z,7.30
2018-12-04T01:54:58.607Z,7.30
2018-12-04T01:57:26.497Z,7.30
2018-12-04T01:59:54.367Z,7.30
2018-12-04T02:02:22.271Z,7.30
2018-12-04T02:04:50.109Z,7.30
2018-12-04T02:07:18.019Z,7.30
2018-12-04T02:09:45.859Z,7.30
2018-12-04T02:12:13.701Z,7.30
2018-12-04T02:14:41.668Z,7.20
2018-12-04T02:17:09.499Z,7.30
2018-12-04T02:19:37.383Z,7.30
2018-12-04T02:22:05.324Z,7.30
2018-12-04T02:24:33.251Z,7.20
2018-12-04T02:27:01.099Z,7.30
2018-12-04T02:29:28.983Z,7.20
2018-12-04T02:31:56.863Z,7.20
2018-12-04T02:34:24.764Z,7.10
2018-12-04T02:36:52.615Z,7.10
2018-12-04T02:39:20.524Z,7.10
2018-12-04T02:41:48.428Z,7.00
2018-12-04T02:44:16.307Z,7.00
2018-12-04T02:46:44.378Z,7.00
2018-12-04T02:49:12.282Z,7.00
2018-12-04T02:51:40.140Z,7.00
2018-12-04T02:54:08.100Z,6.90
2018-12-04T02:56:35.986Z,6.90
2018-12-04T02:59:04.001Z,6.90
2018-12-04T03:01:31.907Z,6.90
2018-12-04T03:03:59.816Z,6.80
2018-12-04T03:06:27.737Z,6.80
2018-12-04T03:08:55.596Z,6.80
2018-12-04T03:11:23.453Z,6.80
2018-12-04T03:13:51.722Z,6.70
2018-12-04T03:16:19.622Z,6.70
2018-12-04T03:18:47.486Z,6.60
2018-12-04T03:21:15.356Z,6.60
2018-12-04T03:23:43.198Z,6.50
2018-12-04T03:26:11.092Z,6.50
2018-12-04T03:28:39.109Z,6.40
2018-12-04T03:31:06.987Z,6.40
2018-12-04T03:33:38.119Z,6.30
2018-12-04T03:36:06.486Z,6.30
2018-12-04T03:38:34.347Z,6.20
2018-12-04T03:41:02.633Z,6.20
2018-12-04T03:43:30.846Z,6.10
2018-12-04T03:45:58.805Z,6.10
2018-12-04T03:48:26.741Z,6.00
2018-12-04T03:50:54.636Z,6.00
2018-12-04T03:53:22.500Z,6.00
2018-12-04T03:55:50.384Z,5.90
2018-12-04T03:58:18.316Z,5.90
2018-12-04T04:00:46.249Z,5.90
2018-12-04T04:05:48.771Z,5.80
2018-12-04T04:08:16.889Z,5.80
2018-12-04T04:10:44.788Z,5.80
2018-12-04T04:13:12.685Z,5.80
2018-12-04T04:15:40.827Z,5.80
2018-12-04T04:18:08.694Z,5.70
2018-12-04T04:20:36.580Z,5.70
2018-12-04T04:23:04.465Z,5.70
2018-12-04T04:25:32.476Z,5.60
2018-12-04T04:28:00.319Z,5.60
2018-12-04T04:30:28.257Z,5.60
2018-12-04T04:32:56.143Z,5.60
2018-12-04T04:35:24.050Z,5.50
2018-12-04T04:37:52.248Z,5.50
2018-12-04T04:42:54.796Z,5.40
2018-12-04T04:45:22.814Z,5.30
2018-12-04T04:47:50.817Z,5.30
2018-12-04T04:50:18.701Z,5.30
2018-12-04T04:52:46.591Z,5.30
2018-12-04T04:55:14.523Z,5.20
2018-12-04T04:57:42.409Z,5.10
2018-12-04T05:00:10.359Z,5.10
2018-12-04T05:02:38.303Z,5.10
2018-12-04T05:05:06.224Z,5.00
2018-12-04T05:07:34.055Z,5.00
2018-12-04T05:10:01.934Z,5.00
2018-12-04T05:12:29.901Z,4.90
2018-12-04T05:14:57.819Z,4.90
2018-12-04T05:17:25.727Z,4.90
2018-12-04T05:19:53.609Z,4.90
2018-12-04T05:22:21.500Z,4.90
2018-12-04T05:24:49.558Z,4.90
2018-12-04T05:27:17.484Z,4.90
2018-12-04T05:29:45.333Z,4.80
2018-12-04T05:32:13.297Z,4.80
2018-12-04T05:34:41.329Z,4.80
2018-12-04T05:37:09.179Z,4.80
2018-12-04T05:39:37.105Z,4.70
2018-12-04T05:42:04.985Z,4.70
2018-12-04T05:44:32.828Z,4.70
2018-12-04T05:47:00.743Z,4.70
2018-12-04T05:49:28.637Z,4.70
2018-12-04T05:51:56.495Z,4.60
2018-12-04T05:54:24.425Z,4.60
2018-12-04T05:56:52.349Z,4.60
2018-12-04T05:59:20.224Z,4.60
2018-12-04T06:01:48.128Z,4.50
2018-12-04T06:04:16.203Z,4.60
2018-12-04T06:06:44.231Z,4.50
2018-12-04T06:09:12.176Z,4.50
2018-12-04T06:11:40.070Z,4.50
2018-12-04T06:14:07.988Z,4.50
2018-12-04T06:16:35.840Z,4.50
2018-12-04T06:19:04.059Z,4.50
2018-12-04T06:21:31.962Z,4.40
2018-12-04T06:23:59.836Z,4.40
2018-12-04T06:26:28.889Z,4.40
2018-12-04T06:28:56.986Z,4.30
2018-12-04T06:31:24.865Z,4.30
2018-12-04T06:33:52.828Z,4.30
2018-12-04T06:36:20.721Z,4.30
2018-12-04T06:38:48.730Z,4.30
2018-12-04T06:41:16.611Z,4.30
2018-12-04T06:43:44.493Z,4.20
2018-12-04T06:46:12.443Z,4.20
2018-12-04T06:48:40.384Z,4.20
2018-12-04T06:51:08.272Z,4.20
2018-12-04T06:53:36.200Z,4.20
2018-12-04T06:56:04.111Z,4.20
2018-12-04T06:58:32.047Z,4.20
2018-12-04T07:00:59.990Z,4.10
2018-12-04T07:03:27.891Z,4.10
2018-12-04T07:05:56.439Z,4.10
2018-12-04T07:08:24.336Z,4.10
2018-12-04T07:10:52.216Z,4.10
2018-12-04T07:13:20.106Z,4.10
2018-12-04T07:15:47.986Z,4.10
2018-12-04T07:18:15.952Z,4.10
2018-12-04T07:20:43.831Z,4.10
2018-12-04T07:23:11.704Z,4.10
2018-12-04T07:25:39.590Z,4.00
2018-12-04T07:28:07.475Z,4.00
2018-12-04T07:30:35.385Z,4.00
2018-12-04T07:33:03.359Z,4.00
2018-12-04T07:35:31.240Z,4.00
2018-12-04T07:37:59.100Z,4.00
2018-12-04T07:40:27.020Z,4.00
2018-12-04T07:42:54.935Z,4.10
2018-12-04T07:45:22.920Z,4.00
2018-12-04T07:47:50.750Z,4.00
2018-12-04T07:50:18.644Z,4.00
2018-12-04T07:52:46.552Z,4.00
2018-12-04T07:55:14.436Z,4.00
2018-12-04T07:57:42.375Z,4.00
2018-12-04T08:00:10.287Z,4.00
2018-12-04T08:02:38.301Z,4.00
2018-12-04T08:05:06.360Z,4.10
2018-12-04T08:07:34.281Z,4.10
2018-12-04T08:10:02.253Z,4.10
2018-12-04T08:12:30.135Z,4.10
2018-12-04T08:14:58.034Z,4.20
2018-12-04T08:17:25.927Z,4.20
2018-12-04T08:19:53.813Z,4.20
2018-12-04T08:22:21.677Z,4.30
2018-12-04T08:24:49.651Z,4.30
2018-12-04T08:27:24.641Z,4.40
2018-12-04T08:29:52.549Z,4.40
2018-12-04T08:32:20.437Z,4.40
2018-12-04T08:34:48.366Z,4.40
2018-12-04T08:37:16.347Z,4.50
2018-12-04T08:39:44.388Z,4.50
2018-12-04T08:42:12.249Z,4.60
2018-12-04T08:44:40.158Z,4.60
2018-12-04T08:47:08.256Z,4.70
2018-12-04T08:49:36.131Z,4.70
2018-12-04T08:52:04.146Z,4.80
2018-12-04T08:54:32.657Z,4.80
2018-12-04T08:57:00.607Z,4.80
2018-12-04T08:59:28.555Z,4.90
2018-12-04T09:01:56.432Z,4.90
2018-12-04T09:04:24.358Z,5.00
2018-12-04T09:06:52.300Z,5.00
2018-12-04T09:09:20.283Z,5.10
2018-12-04T09:11:48.177Z,5.20
2018-12-04T09:14:16.105Z,5.20
2018-12-04T09:16:43.945Z,5.30
2018-12-04T09:19:11.953Z,5.30
2018-12-04T09:21:40.096Z,5.40
2018-12-04T09:24:08.149Z,5.40
2018-12-04T09:26:36.084Z,5.50
2018-12-04T09:29:04.026Z,5.50
2018-12-04T09:31:31.964Z,5.60
2018-12-04T09:33:59.832Z,5.60
2018-12-04T09:36:27.716Z,5.70
2018-12-04T09:38:55.722Z,5.80
2018-12-04T09:41:23.667Z,5.80
2018-12-04T09:43:51.585Z,5.80
2018-12-04T09:46:19.498Z,5.80
2018-12-04T09:48:47.371Z,5.90
2018-12-04T09:51:15.408Z,5.90
2018-12-04T09:53:43.336Z,6.00
2018-12-04T09:56:11.223Z,6.10
2018-12-04T09:58:39.120Z,6.10
2018-12-04T10:01:07.016Z,6.20
2018-12-04T10:03:34.956Z,6.30
2018-12-04T10:06:03.010Z,6.40
2018-12-04T10:08:30.896Z,6.40
2018-12-04T10:10:58.740Z,6.50
2018-12-04T10:13:26.717Z,6.50
2018-12-04T10:15:54.616Z,6.60
2018-12-04T10:18:22.493Z,6.60
2018-12-04T10:20:50.392Z,6.60
2018-12-04T10:23:18.226Z,6.80
2018-12-04T10:25:51.216Z,6.70
2018-12-04T10:28:19.926Z,6.70
2018-12-04T10:30:53.577Z,6.80
2018-12-04T10:33:21.442Z,6.80
2018-12-04T10:35:49.428Z,6.80
2018-12-04T10:38:17.322Z,6.90
2018-12-04T10:40:45.270Z,6.90
2018-12-04T10:43:13.333Z,7.00
2018-12-04T10:45:41.330Z,7.00
2018-12-04T10:48:09.239Z,7.10
2018-12-04T10:50:37.189Z,7.10
2018-12-04T10:53:05.074Z,7.20
2018-12-04T10:55:32.947Z,7.20
2018-12-04T10:58:00.883Z,7.30
2018-12-04T11:00:34.328Z,7.30
2018-12-04T11:03:07.838Z,7.40
2018-12-04T11:05:35.777Z,7.40
2018-12-04T11:08:03.771Z,7.40
2018-12-04T11:10:31.691Z,7.50
2018-12-04T11:12:59.752Z,7.50
2018-12-04T11:15:27.620Z,7.50
2018-12-04T11:17:55.550Z,7.50
2018-12-04T11:20:23.369Z,7.50
2018-12-04T11:22:51.294Z,7.50
2018-12-04T11:25:19.175Z,7.50
2018-12-04T11:27:47.064Z,7.60
2018-12-04T11:30:14.987Z,7.60
2018-12-04T11:32:42.875Z,7.60
2018-12-04T11:35:10.761Z,7.60
2018-12-04T11:37:38.637Z,7.60
2018-12-04T11:40:06.926Z,7.60
2018-12-04T11:42:34.805Z,7.60
2018-12-04T11:45:02.854Z,7.70
2018-12-04T11:47:30.789Z,7.70
2018-12-04T11:49:58.674Z,7.60
2018-12-04T11:52:26.596Z,7.60
2018-12-04T11:54:54.478Z,7.60
2018-12-04T11:57:22.397Z,7.60
2018-12-04T11:59:50.312Z,7.60
2018-12-04T12:02:18.331Z,7.60
2018-12-04T12:04:46.247Z,7.60
2018-12-04T12:07:20.401Z,7.70
2018-12-04T12:09:44.610Z,7.60
2018-12-04T12:12:12.549Z,7.60
2018-12-04T12:14:40.482Z,7.60
2018-12-04T12:17:08.401Z,7.60
2018-12-04T12:19:36.315Z,7.50
2018-12-04T12:22:04.223Z,7.50
2018-12-04T12:24:32.109Z,7.50
2018-12-04T12:27:00.058Z,7.50
2018-12-04T12:29:27.943Z,7.50
2018-12-04T12:31:55.825Z,7.40
2018-12-04T12:34:23.671Z,7.50
2018-12-04T12:36:51.569Z,7.50
2018-12-04T12:39:19.421Z,7.40
2018-12-04T12:41:47.319Z,7.40
2018-12-04T12:44:15.196Z,7.40
2018-12-04T12:46:43.123Z,7.40
2018-12-04T12:49:10.984Z,7.40
2018-12-04T12:51:38.900Z,7.40
2018-12-04T12:54:06.833Z,7.40
2018-12-04T12:56:34.711Z,7.40
2018-12-04T12:59:02.564Z,7.40
2018-12-04T13:01:30.478Z,7.30
2018-12-04T13:03:58.400Z,7.30
2018-12-04T13:06:26.300Z,7.30
2018-12-04T13:08:54.137Z,7.30
2018-12-04T13:11:22.081Z,7.30
2018-12-04T13:13:50.016Z,7.30
2018-12-04T13:16:17.970Z,7.30
2018-12-04T13:18:45.975Z,7.30
2018-12-04T13:21:13.897Z,7.20
2018-12-04T13:23:41.774Z,7.30
2018-12-04T13:26:09.683Z,7.30
2018-12-04T13:28:37.597Z,7.20
2018-12-04T13:31:05.505Z,7.20
2018-12-04T13:33:33.497Z,7.20
2018-12-04T13:36:01.550Z,7.20
2018-12-04T13:38:29.415Z,7.20
2018-12-04T13:40:57.484Z,7.20
2018-12-04T13:43:25.352Z,7.20
2018-12-04T13:45:53.265Z,7.20
2018-12-04T13:48:21.127Z,7.10
2018-12-04T13:50:49.074Z,7.00
2018-12-04T13:53:16.982Z,7.00
2018-12-04T13:55:44.859Z,7.00
2018-12-04T13:58:12.740Z,7.00
2018-12-04T14:00:40.596Z,6.90
2018-12-04T14:03:08.568Z,6.90
2018-12-04T14:05:36.498Z,6.80
2018-12-04T14:08:04.412Z,6.80
2018-12-04T14:10:32.313Z,6.80
2018-12-04T14:13:00.195Z,6.70
2018-12-04T14:15:28.127Z,6.70
2018-12-04T14:17:56.012Z,6.70
2018-12-04T14:20:23.937Z,6.60
2018-12-04T14:22:51.820Z,6.60
2018-12-04T14:25:19.731Z,6.50
2018-12-04T14:27:49.240Z,6.50
2018-12-04T14:30:17.284Z,6.50
2018-12-04T14:32:45.203Z,6.40
2018-12-04T14:35:13.212Z,6.40
2018-12-04T14:37:41.659Z,6.30
2018-12-04T14:40:09.721Z,6.20
2018-12-04T14:42:37.776Z,6.20
2018-12-04T14:45:06.310Z,6.20
2018-12-04T14:47:34.216Z,6.00
2018-12-04T14:50:02.189Z,6.00
2018-12-04T14:52:30.227Z,5.90
2018-12-04T14:54:58.238Z,5.90
2018-12-04T14:57:26.163Z,5.80
2018-12-04T14:59:54.145Z,5.70
2018-12-04T15:02:22.070Z,5.60
2018-12-04T15:04:50.047Z,5.60
2018-12-04T15:07:17.945Z,5.50
2018-12-04T15:09:45.880Z,5.40
2018-12-04T15:12:13.776Z,5.30
2018-12-04T15:14:46.726Z,5.30
2018-12-04T15:17:14.639Z,5.20
2018-12-04T15:19:42.535Z,5.10
2018-12-04T15:22:10.698Z,5.00
2018-12-04T15:24:38.638Z,5.00
2018-12-04T15:27:06.645Z,4.90
2018-12-04T15:29:34.595Z,4.90
2018-12-04T15:32:02.633Z,4.80
2018-12-04T15:34:30.652Z,4.80
2018-12-04T15:36:58.569Z,4.60
2018-12-04T15:39:26.546Z,4.60
2018-12-04T15:41:54.791Z,4.60
2018-12-04T15:44:22.750Z,4.50
2018-12-04T15:46:50.647Z,4.50
2018-12-04T15:49:18.582Z,4.40
2018-12-04T15:51:46.457Z,4.40
2018-12-04T15:54:14.424Z,4.30
2018-12-04T15:56:42.318Z,4.20
2018-12-04T15:59:10.217Z,4.20
2018-12-04T16:01:38.160Z,4.10
2018-12-04T16:04:06.060Z,4.10
2018-12-04T16:06:35.437Z,4.00
2018-12-04T16:09:06.145Z,4.00
2018-12-04T16:11:34.104Z,4.00
2018-12-04T16:14:02.005Z,3.90
2018-12-04T16:16:29.902Z,3.90
2018-12-04T16:19:00.150Z,3.90
2018-12-04T16:21:40.591Z,3.80
2018-12-04T16:24:08.626Z,3.80
2018-12-04T16:26:36.540Z,3.80
2018-12-04T16:29:04.441Z,3.80
2018-12-04T16:31:32.361Z,3.80
2018-12-04T16:34:00.263Z,3.70
2018-12-04T16:36:28.301Z,3.70
2018-12-04T16:38:56.206Z,3.60
2018-12-04T16:41:24.081Z,3.60
2018-12-04T16:43:52.021Z,3.60
2018-12-04T16:46:19.928Z,3.60
2018-12-04T16:48:47.872Z,3.50
2018-12-04T16:51:15.781Z,3.50
2018-12-04T16:53:43.691Z,3.40
2018-12-04T16:56:11.633Z,3.40
2018-12-04T16:58:39.655Z,3.40
2018-12-04T17:01:07.661Z,3.40
2018-12-04T17:03:35.564Z,3.40
2018-12-04T17:06:04.903Z,3.40
2018-12-04T17:08:33.276Z,3.40
2018-12-04T17:11:01.188Z,3.30
2018-12-04T17:13:29.157Z,3.30
2018-12-04T17:15:57.915Z,3.30
2018-12-04T17:18:25.862Z,3.30
2018-12-04T17:20:53.772Z,3.30
2018-12-04T17:23:21.669Z,3.30
2018-12-04T17:25:49.667Z,3.30
2018-12-04T17:28:17.592Z,3.30
2018-12-04T17:30:45.461Z,3.30
2018-12-04T17:33:13.787Z,3.30
2018-12-04T17:35:41.714Z,3.20
2018-12-04T17:38:09.827Z,3.20
2018-12-04T17:40:37.780Z,3.20
2018-12-04T17:43:06.092Z,3.20
2018-12-04T17:45:34.089Z,3.20
2018-12-04T17:48:01.994Z,3.20
2018-12-04T17:50:30.039Z,3.10
2018-12-04T17:52:58.065Z,3.10
2018-12-04T17:55:25.950Z,3.10
2018-12-04T17:57:53.820Z,3.10
2018-12-04T18:00:21.737Z,3.10
2018-12-04T18:02:49.659Z,3.00
2018-12-04T18:05:17.579Z,3.00
2018-12-04T18:07:45.544Z,3.00
2018-12-04T18:10:13.477Z,2.90
2018-12-04T18:12:41.398Z,2.90
2018-12-04T18:15:09.512Z,2.80
2018-12-04T18:17:37.437Z,2.80
2018-12-04T18:20:05.977Z,2.60
2018-12-04T18:22:33.936Z,2.70
2018-12-04T18:25:01.840Z,2.70
2018-12-04T18:27:29.727Z,2.70
2018-12-04T18:29:57.652Z,2.20
2018-12-04T18:32:25.655Z,2.60
2018-12-04T18:34:53.711Z,2.50
2018-12-04T18:37:21.552Z,2.50
2018-12-04T18:39:49.587Z,2.50
2018-12-04T18:42:17.484Z,2.40
2018-12-04T18:44:45.505Z,2.40
2018-12-04T18:47:13.488Z,2.30
2018-12-04T18:49:41.361Z,2.30
2018-12-04T18:52:09.286Z,2.30
2018-12-04T18:54:37.234Z,2.20
2018-12-04T18:57:05.263Z,2.20
2018-12-04T19:02:08.042Z,2.10
2018-12-04T19:04:35.947Z,2.10
2018-12-04T19:07:04.787Z,2.00
2018-12-04T19:09:32.848Z,2.00
2018-12-04T19:12:00.762Z,2.00
2018-12-04T19:14:28.708Z,1.90
2018-12-04T19:16:56.645Z,1.90
2018-12-04T19:19:24.648Z,1.80
2018-12-04T19:21:52.619Z,1.70
2018-12-04T19:24:20.617Z,1.70
2018-12-04T19:26:48.532Z,1.60
2018-12-04T19:29:16.456Z,1.60
2018-12-04T19:31:44.624Z,1.50
2018-12-04T19:34:12.715Z,1.50
2018-12-04T19:36:40.878Z,1.50
2018-12-04T19:39:09.248Z,1.50
2018-12-04T19:41:37.335Z,1.40
2018-12-04T19:44:05.321Z,1.40
2018-12-04T19:46:33.400Z,1.40
2018-12-04T19:49:01.567Z,1.40
2018-12-04T19:51:29.539Z,1.40
2018-12-04T19:53:57.452Z,1.40
2018-12-04T19:56:25.487Z,1.40
2018-12-04T19:58:53.404Z,1.30
2018-12-04T20:01:25.780Z,1.30
2018-12-04T20:03:54.412Z,1.30
2018-12-04T20:06:22.462Z,1.30
2018-12-04T20:08:53.472Z,1.30
2018-12-04T20:11:21.510Z,1.20
2018-12-04T20:13:49.721Z,1.20
2018-12-04T20:16:17.700Z,1.20
2018-12-04T20:18:46.604Z,1.10
2018-12-04T20:21:14.793Z,1.10
2018-12-04T20:23:42.821Z,1.10
2018-12-04T20:26:10.888Z,1.10
2018-12-04T20:28:38.784Z,1.10
2018-12-04T20:31:06.787Z,1.10
2018-12-04T20:33:34.830Z,1.10
2018-12-04T20:36:02.806Z,1.10
2018-12-04T20:38:31.633Z,1.10
2018-12-04T20:40:59.516Z,1.10
2018-12-04T20:43:27.607Z,1.10
2018-12-04T20:45:55.527Z,1.10
2018-12-04T20:48:23.514Z,1.10
2018-12-04T20:50:51.565Z,1.20
2018-12-04T20:53:19.452Z,1.20
2018-12-04T20:55:47.517Z,1.20
2018-12-04T20:58:15.625Z,1.30
2018-12-04T21:00:43.531Z,1.30
2018-12-04T21:03:17.372Z,1.30
2018-12-04T21:05:45.411Z,1.30
2018-12-04T21:08:13.265Z,1.30
2018-12-04T21:10:41.288Z,1.30
2018-12-04T21:13:14.441Z,1.30
2018-12-04T21:15:39.265Z,1.30
2018-12-04T21:18:07.236Z,1.30
2018-12-04T21:20:35.112Z,1.30
2018-12-04T21:23:03.124Z,1.30
2018-12-04T21:25:31.054Z,1.30
2018-12-04T21:28:05.430Z,1.30
2018-12-04T21:30:39.021Z,1.40
2018-12-04T21:33:12.543Z,1.40
2018-12-04T21:35:46.161Z,1.50
2018-12-04T21:38:19.753Z,1.50
2018-12-04T21:40:55.053Z,1.50
2018-12-04T21:43:28.828Z,1.50
2018-12-04T21:46:02.363Z,1.50
2018-12-04T21:48:30.296Z,1.60
2018-12-04T21:50:58.166Z,1.60
2018-12-04T21:53:26.102Z,1.60
2018-12-04T21:55:54.033Z,1.60
2018-12-04T21:58:21.944Z,1.60
2018-12-04T22:00:49.950Z,1.60
2018-12-04T22:03:17.895Z,1.60
2018-12-04T22:05:45.868Z,1.60
2018-12-04T22:08:13.742Z,1.60
2018-12-04T22:10:41.785Z,1.60
2018-12-04T22:13:09.651Z,1.60
2018-12-04T22:15:37.516Z,1.60
2018-12-04T22:18:05.509Z,1.60
2018-12-04T22:20:33.761Z,1.60
2018-12-04T22:23:01.640Z,1.60
2018-12-04T22:25:29.534Z,1.60
2018-12-04T22:27:57.442Z,1.60
2018-12-04T22:30:25.352Z,1.60
2018-12-04T22:32:53.264Z,1.60
2018-12-04T22:35:21.173Z,1.60
2018-12-04T22:37:49.117Z,1.60
2018-12-04T22:40:17.029Z,1.60
2018-12-04T22:42:44.913Z,1.60
2018-12-04T22:45:18.722Z,1.60
2018-12-04T22:47:46.646Z,1.50
2018-12-04T22:50:14.600Z,1.50
2018-12-04T22:52:42.597Z,1.50
2018-12-04T22:55:10.546Z,1.50
2018-12-04T22:57:38.460Z,1.50
2018-12-04T23:00:14.779Z,1.40
2018-12-04T23:02:42.748Z,1.40
2018-12-04T23:05:10.666Z,1.40
2018-12-04T23:07:38.613Z,1.40
2018-12-04T23:10:07.051Z,1.40
2018-12-04T23:12:35.220Z,1.30
2018-12-04T23:15:03.305Z,1.30
2018-12-04T23:17:31.244Z,1.30
2018-12-04T23:19:59.141Z,1.20
2018-12-04T23:22:27.076Z,1.20
2018-12-04T23:24:55.117Z,1.10
2018-12-04T23:27:23.077Z,1.10
2018-12-04T23:29:50.991Z,1.10
2018-12-04T23:32:18.930Z,1.10
2018-12-04T23:34:46.855Z,1.10
2018-12-04T23:37:14.806Z,1.00
2018-12-04T23:39:42.821Z,1.00
2018-12-04T23:42:10.701Z,1.00
2018-12-04T23:44:38.677Z,1.00
2018-12-04T23:47:06.651Z,1.00
2018-12-04T23:49:34.551Z,1.00
2018-12-04T23:52:02.583Z,1.00
2018-12-04T23:54:30.517Z,1.00
2018-12-04T23:56:58.464Z,0.90
2018-12-04T23:59:26.431Z,0.90
